sensor_id;sensor_type;location;lat;lon;timestamp;pressure;altitude;pressure_sealevel;temperature;humidity
30339;BME280;795;49.296;11.348;2022-08-19T00:02:08;95800.31;;;19.26;100.00
30339;BME280;795;49.296;11.348;2022-08-19T00:04:36;95808.13;;;19.22;100.00
30339;BME280;795;49.296;11.348;2022-08-19T00:07:06;95803.16;;;19.19;100.00
30339;BME280;795;49.296;11.348;2022-08-19T00:09:34;95794.66;;;19.15;100.00
30339;BME280;795;49.296;11.348;2022-08-19T00:12:02;95788.59;;;19.13;100.00
30339;BME280;795;49.296;11.348;2022-08-19T00:14:30;95798.66;;;19.01;100.00
30339;BME280;795;49.296;11.348;2022-08-19T00:16:58;95797.97;;;19.17;100.00
30339;BME280;795;49.296;11.348;2022-08-19T00:19:26;95785.78;;;19.08;100.00
30339;BME280;795;49.296;11.348;2022-08-19T00:21:53;95786.97;;;19.12;100.00
30339;BME280;795;49.296;11.348;2022-08-19T00:24:22;95793.34;;;19.06;100.00
30339;BME280;795;49.296;11.348;2022-08-19T00:26:50;95798.44;;;19.03;100.00
30339;BME280;795;49.296;11.348;2022-08-19T00:29:21;95801.50;;;18.95;100.00
30339;BME280;795;49.296;11.348;2022-08-19T00:31:50;95797.47;;;18.97;100.00
30339;BME280;795;49.296;11.348;2022-08-19T00:34:22;95799.75;;;19.00;100.00
30339;BME280;795;49.296;11.348;2022-08-19T00:36:50;95807.56;;;19.08;100.00
30339;BME280;795;49.296;11.348;2022-08-19T00:39:17;95799.28;;;19.03;100.00
30339;BME280;795;49.296;11.348;2022-08-19T00:41:48;95807.56;;;19.08;100.00
30339;BME280;795;49.296;11.348;2022-08-19T00:44:26;95809.66;;;19.06;100.00
30339;BME280;795;49.296;11.348;2022-08-19T00:46:58;95798.91;;;19.00;100.00
30339;BME280;795;49.296;11.348;2022-08-19T00:49:47;95804.81;;;18.97;100.00
30339;BME280;795;49.296;11.348;2022-08-19T00:52:33;95805.88;;;18.84;100.00
30339;BME280;795;49.296;11.348;2022-08-19T00:55:06;95791.66;;;18.82;100.00
30339;BME280;795;49.296;11.348;2022-08-19T00:57:42;95812.25;;;18.90;100.00
30339;BME280;795;49.296;11.348;2022-08-19T01:00:16;95795.94;;;18.90;100.00
30339;BME280;795;49.296;11.348;2022-08-19T01:02:44;95793.13;;;18.96;100.00
30339;BME280;795;49.296;11.348;2022-08-19T01:05:20;95799.75;;;18.89;100.00
30339;BME280;795;49.296;11.348;2022-08-19T01:07:49;95809.91;;;18.82;100.00
30339;BME280;795;49.296;11.348;2022-08-19T01:10:25;95815.34;;;18.93;100.00
30339;BME280;795;49.296;11.348;2022-08-19T01:12:55;95818.41;;;18.85;100.00
30339;BME280;795;49.296;11.348;2022-08-19T01:15:33;95811.91;;;18.75;100.00
30339;BME280;795;49.296;11.348;2022-08-19T01:18:10;95814.00;;;18.73;100.00
30339;BME280;795;49.296;11.348;2022-08-19T01:20:39;95824.19;;;18.77;100.00
30339;BME280;795;49.296;11.348;2022-08-19T01:23:07;95816.41;;;18.81;100.00
30339;BME280;795;49.296;11.348;2022-08-19T01:25:55;95810.50;;;18.84;100.00
30339;BME280;795;49.296;11.348;2022-08-19T01:28:27;95824.94;;;18.84;100.00
30339;BME280;795;49.296;11.348;2022-08-19T01:31:00;95819.25;;;18.86;100.00
30339;BME280;795;49.296;11.348;2022-08-19T01:33:34;95817.69;;;18.90;100.00
30339;BME280;795;49.296;11.348;2022-08-19T01:36:20;95818.31;;;19.03;100.00
30339;BME280;795;49.296;11.348;2022-08-19T01:38:49;95812.75;;;18.98;100.00
30339;BME280;795;49.296;11.348;2022-08-19T01:41:18;95827.88;;;18.94;100.00
30339;BME280;795;49.296;11.348;2022-08-19T01:43:45;95815.81;;;18.90;100.00
30339;BME280;795;49.296;11.348;2022-08-19T01:46:33;95831.44;;;18.95;100.00
30339;BME280;795;49.296;11.348;2022-08-19T01:49:05;95830.38;;;18.96;100.00
30339;BME280;795;49.296;11.348;2022-08-19T01:51:32;95845.16;;;19.11;100.00
30339;BME280;795;49.296;11.348;2022-08-19T01:54:11;95844.09;;;19.12;100.00
30339;BME280;795;49.296;11.348;2022-08-19T01:56:39;95848.38;;;19.08;100.00
30339;BME280;795;49.296;11.348;2022-08-19T01:59:14;95840.81;;;19.10;100.00
30339;BME280;795;49.296;11.348;2022-08-19T02:01:43;95839.97;;;19.10;100.00
30339;BME280;795;49.296;11.348;2022-08-19T02:04:10;95833.09;;;19.07;100.00
30339;BME280;795;49.296;11.348;2022-08-19T02:06:38;95846.69;;;19.07;100.00
30339;BME280;795;49.296;11.348;2022-08-19T02:09:08;95832.84;;;18.97;100.00
30339;BME280;795;49.296;11.348;2022-08-19T02:11:37;95854.16;;;19.12;100.00
30339;BME280;795;49.296;11.348;2022-08-19T02:14:07;95860.19;;;19.14;100.00
30339;BME280;795;49.296;11.348;2022-08-19T02:16:37;95864.91;;;19.07;100.00
30339;BME280;795;49.296;11.348;2022-08-19T02:19:05;95865.63;;;19.14;100.00
30339;BME280;795;49.296;11.348;2022-08-19T02:21:32;95872.25;;;19.06;100.00
30339;BME280;795;49.296;11.348;2022-08-19T02:23:59;95878.38;;;19.02;100.00
30339;BME280;795;49.296;11.348;2022-08-19T02:26:27;95866.81;;;19.06;100.00
30339;BME280;795;49.296;11.348;2022-08-19T02:28:54;95870.34;;;19.07;100.00
30339;BME280;795;49.296;11.348;2022-08-19T02:31:25;95886.94;;;19.05;100.00
30339;BME280;795;49.296;11.348;2022-08-19T02:33:53;95881.09;;;19.02;100.00
30339;BME280;795;49.296;11.348;2022-08-19T02:36:25;95875.81;;;19.07;100.00
30339;BME280;795;49.296;11.348;2022-08-19T02:38:53;95889.06;;;19.03;100.00
30339;BME280;795;49.296;11.348;2022-08-19T02:41:30;95893.66;;;19.03;100.00
30339;BME280;795;49.296;11.348;2022-08-19T02:44:01;95887.06;;;19.10;100.00
30339;BME280;795;49.296;11.348;2022-08-19T02:46:49;95875.59;;;19.08;100.00
30339;BME280;795;49.296;11.348;2022-08-19T02:49:19;95869.63;;;19.00;100.00
30339;BME280;795;49.296;11.348;2022-08-19T02:51:47;95842.44;;;18.88;100.00
30339;BME280;795;49.296;11.348;2022-08-19T02:54:15;95859.59;;;19.00;100.00
30339;BME280;795;49.296;11.348;2022-08-19T02:56:44;95834.72;;;18.85;100.00
30339;BME280;795;49.296;11.348;2022-08-19T02:59:11;95852.72;;;18.98;100.00
30339;BME280;795;49.296;11.348;2022-08-19T03:01:41;95856.50;;;18.97;100.00
30339;BME280;795;49.296;11.348;2022-08-19T03:04:14;95852.97;;;18.96;100.00
30339;BME280;795;49.296;11.348;2022-08-19T03:06:46;95848.00;;;18.93;100.00
30339;BME280;795;49.296;11.348;2022-08-19T03:09:15;95836.53;;;18.91;100.00
30339;BME280;795;49.296;11.348;2022-08-19T03:11:44;95825.53;;;18.86;100.00
30339;BME280;795;49.296;11.348;2022-08-19T03:14:12;95828.00;;;18.88;100.00
30339;BME280;795;49.296;11.348;2022-08-19T03:16:49;95830.13;;;18.86;100.00
30339;BME280;795;49.296;11.348;2022-08-19T03:19:20;95827.66;;;18.84;100.00
30339;BME280;795;49.296;11.348;2022-08-19T03:21:51;95827.53;;;18.79;100.00
30339;BME280;795;49.296;11.348;2022-08-19T03:24:19;95841.34;;;18.78;100.00
30339;BME280;795;49.296;11.348;2022-08-19T03:26:54;95832.13;;;18.90;100.00
30339;BME280;795;49.296;11.348;2022-08-19T03:29:28;95828.38;;;18.91;100.00
30339;BME280;795;49.296;11.348;2022-08-19T03:32:05;95823.63;;;18.87;100.00
30339;BME280;795;49.296;11.348;2022-08-19T03:34:50;95801.88;;;18.87;100.00
30339;BME280;795;49.296;11.348;2022-08-19T03:37:17;95806.59;;;18.91;100.00
30339;BME280;795;49.296;11.348;2022-08-19T03:39:44;95798.91;;;18.88;100.00
30339;BME280;795;49.296;11.348;2022-08-19T03:42:11;95806.94;;;18.83;100.00
30339;BME280;795;49.296;11.348;2022-08-19T03:44:59;95812.63;;;18.93;100.00
30339;BME280;795;49.296;11.348;2022-08-19T03:47:26;95822.09;;;18.91;100.00
30339;BME280;795;49.296;11.348;2022-08-19T03:49:53;95818.66;;;18.95;100.00
30339;BME280;795;49.296;11.348;2022-08-19T03:52:20;95817.34;;;18.86;100.00
30339;BME280;795;49.296;11.348;2022-08-19T03:54:47;95812.50;;;18.88;100.00
30339;BME280;795;49.296;11.348;2022-08-19T03:57:14;95806.69;;;18.85;100.00
30339;BME280;795;49.296;11.348;2022-08-19T03:59:41;95811.09;;;18.86;100.00
30339;BME280;795;49.296;11.348;2022-08-19T04:02:11;95811.91;;;18.86;100.00
30339;BME280;795;49.296;11.348;2022-08-19T04:04:42;95821.97;;;18.86;100.00
30339;BME280;795;49.296;11.348;2022-08-19T04:07:13;95831.69;;;18.93;100.00
30339;BME280;795;49.296;11.348;2022-08-19T04:09:43;95845.16;;;18.88;100.00
30339;BME280;795;49.296;11.348;2022-08-19T04:12:10;95848.47;;;18.90;100.00
30339;BME280;795;49.296;11.348;2022-08-19T04:14:37;95864.44;;;18.87;100.00
30339;BME280;795;49.296;11.348;2022-08-19T04:17:04;95873.88;;;18.84;100.00
30339;BME280;795;49.296;11.348;2022-08-19T04:19:34;95851.72;;;18.69;100.00
30339;BME280;795;49.296;11.348;2022-08-19T04:22:02;95862.75;;;18.86;100.00
30339;BME280;795;49.296;11.348;2022-08-19T04:24:31;95877.56;;;19.01;100.00
30339;BME280;795;49.296;11.348;2022-08-19T04:27:01;95865.38;;;19.04;100.00
30339;BME280;795;49.296;11.348;2022-08-19T04:29:29;95874.13;;;18.94;100.00
30339;BME280;795;49.296;11.348;2022-08-19T04:31:59;95892.44;;;18.87;100.00
30339;BME280;795;49.296;11.348;2022-08-19T04:34:37;95898.09;;;18.74;100.00
30339;BME280;795;49.296;11.348;2022-08-19T04:37:27;95891.31;;;18.65;100.00
30339;BME280;795;49.296;11.348;2022-08-19T04:40:04;95908.38;;;18.72;100.00
30339;BME280;795;49.296;11.348;2022-08-19T04:42:50;95900.13;;;18.79;100.00
30339;BME280;795;49.296;11.348;2022-08-19T04:45:18;95899.78;;;18.87;100.00
30339;BME280;795;49.296;11.348;2022-08-19T04:47:49;95908.28;;;18.90;100.00
30339;BME280;795;49.296;11.348;2022-08-19T04:50:26;95907.72;;;18.88;100.00
30339;BME280;795;49.296;11.348;2022-08-19T04:52:54;95908.56;;;19.00;100.00
30339;BME280;795;49.296;11.348;2022-08-19T04:55:23;95894.09;;;18.88;100.00
30339;BME280;795;49.296;11.348;2022-08-19T04:57:54;95922.16;;;19.00;100.00
30339;BME280;795;49.296;11.348;2022-08-19T05:00:22;95921.44;;;18.93;100.00
30339;BME280;795;49.296;11.348;2022-08-19T05:02:49;95931.94;;;18.90;100.00
30339;BME280;795;49.296;11.348;2022-08-19T05:05:17;95925.06;;;18.87;100.00
30339;BME280;795;49.296;11.348;2022-08-19T05:07:44;95943.34;;;18.98;100.00
30339;BME280;795;49.296;11.348;2022-08-19T05:10:11;95943.47;;;19.03;100.00
30339;BME280;795;49.296;11.348;2022-08-19T05:12:39;95939.53;;;18.99;100.00
30339;BME280;795;49.296;11.348;2022-08-19T05:15:08;95935.53;;;19.13;100.00
30339;BME280;795;49.296;11.348;2022-08-19T05:17:35;95918.16;;;19.03;100.00
30339;BME280;795;49.296;11.348;2022-08-19T05:20:07;95930.59;;;19.10;100.00
30339;BME280;795;49.296;11.348;2022-08-19T05:22:54;95933.53;;;19.09;100.00
30339;BME280;795;49.296;11.348;2022-08-19T05:25:22;95929.25;;;19.01;100.00
30339;BME280;795;49.296;11.348;2022-08-19T05:27:49;95937.22;;;19.14;100.00
30339;BME280;795;49.296;11.348;2022-08-19T05:30:17;95933.03;;;19.00;100.00
30339;BME280;795;49.296;11.348;2022-08-19T05:33:04;95935.66;;;19.07;100.00
30339;BME280;795;49.296;11.348;2022-08-19T05:35:31;95939.47;;;19.17;100.00
30339;BME280;795;49.296;11.348;2022-08-19T05:38:00;95937.09;;;19.21;100.00
30339;BME280;795;49.296;11.348;2022-08-19T05:40:27;95903.38;;;19.10;100.00
30339;BME280;795;49.296;11.348;2022-08-19T05:42:55;95933.31;;;19.22;100.00
30339;BME280;795;49.296;11.348;2022-08-19T05:45:22;95941.50;;;19.22;100.00
30339;BME280;795;49.296;11.348;2022-08-19T05:47:49;95925.63;;;19.31;100.00
30339;BME280;795;49.296;11.348;2022-08-19T05:50:16;95929.19;;;19.31;100.00
30339;BME280;795;49.296;11.348;2022-08-19T05:52:44;95928.13;;;19.32;100.00
30339;BME280;795;49.296;11.348;2022-08-19T05:55:17;95914.72;;;19.07;100.00
30339;BME280;795;49.296;11.348;2022-08-19T05:57:47;95938.66;;;19.29;100.00
30339;BME280;795;49.296;11.348;2022-08-19T06:00:14;95929.78;;;19.33;100.00
30339;BME280;795;49.296;11.348;2022-08-19T06:02:41;95942.78;;;19.19;100.00
30339;BME280;795;49.296;11.348;2022-08-19T06:05:10;95940.78;;;19.27;100.00
30339;BME280;795;49.296;11.348;2022-08-19T06:07:39;95944.75;;;19.42;100.00
30339;BME280;795;49.296;11.348;2022-08-19T06:10:10;95931.59;;;19.51;100.00
30339;BME280;795;49.296;11.348;2022-08-19T06:12:38;95929.97;;;19.61;100.00
30339;BME280;795;49.296;11.348;2022-08-19T06:15:12;95944.28;;;19.57;100.00
30339;BME280;795;49.296;11.348;2022-08-19T06:17:41;95945.72;;;19.59;100.00
30339;BME280;795;49.296;11.348;2022-08-19T06:20:14;95928.28;;;19.72;100.00
30339;BME280;795;49.296;11.348;2022-08-19T06:22:46;95930.44;;;19.70;100.00
30339;BME280;795;49.296;11.348;2022-08-19T06:25:15;95918.13;;;19.56;100.00
30339;BME280;795;49.296;11.348;2022-08-19T06:27:42;95932.44;;;19.63;100.00
30339;BME280;795;49.296;11.348;2022-08-19T06:30:29;95928.31;;;19.60;100.00
30339;BME280;795;49.296;11.348;2022-08-19T06:32:56;95928.75;;;19.57;100.00
30339;BME280;795;49.296;11.348;2022-08-19T06:35:23;95938.00;;;19.68;100.00
30339;BME280;795;49.296;11.348;2022-08-19T06:37:51;95935.16;;;19.63;100.00
30339;BME280;795;49.296;11.348;2022-08-19T06:40:19;95933.16;;;19.70;100.00
30339;BME280;795;49.296;11.348;2022-08-19T06:42:46;95940.72;;;19.68;100.00
30339;BME280;795;49.296;11.348;2022-08-19T06:45:23;95950.56;;;19.92;100.00
30339;BME280;795;49.296;11.348;2022-08-19T06:48:00;95954.94;;;19.93;100.00
30339;BME280;795;49.296;11.348;2022-08-19T06:50:27;95961.56;;;20.09;100.00
30339;BME280;795;49.296;11.348;2022-08-19T06:52:54;95963.22;;;20.10;100.00
30339;BME280;795;49.296;11.348;2022-08-19T06:55:21;95962.38;;;20.09;100.00
30339;BME280;795;49.296;11.348;2022-08-19T06:57:49;95965.91;;;20.21;100.00
30339;BME280;795;49.296;11.348;2022-08-19T07:00:20;95945.81;;;20.22;100.00
30339;BME280;795;49.296;11.348;2022-08-19T07:02:47;95970.41;;;20.50;100.00
30339;BME280;795;49.296;11.348;2022-08-19T07:05:25;95969.81;;;20.48;100.00
30339;BME280;795;49.296;11.348;2022-08-19T07:07:52;95977.16;;;20.88;100.00
30339;BME280;795;49.296;11.348;2022-08-19T07:10:23;95964.09;;;21.18;100.00
30339;BME280;795;49.296;11.348;2022-08-19T07:12:51;95976.22;;;21.55;100.00
30339;BME280;795;49.296;11.348;2022-08-19T07:15:18;95981.59;;;21.83;100.00
30339;BME280;795;49.296;11.348;2022-08-19T07:17:48;95980.59;;;21.90;100.00
30339;BME280;795;49.296;11.348;2022-08-19T07:20:18;95980.75;;;22.00;100.00
30339;BME280;795;49.296;11.348;2022-08-19T07:22:46;95971.72;;;21.66;100.00
30339;BME280;795;49.296;11.348;2022-08-19T07:25:13;95986.06;;;21.56;100.00
30339;BME280;795;49.296;11.348;2022-08-19T07:27:40;95974.16;;;21.79;100.00
30339;BME280;795;49.296;11.348;2022-08-19T07:30:12;95973.56;;;21.77;100.00
30339;BME280;795;49.296;11.348;2022-08-19T07:32:40;95977.19;;;21.49;100.00
30339;BME280;795;49.296;11.348;2022-08-19T07:35:09;95976.03;;;21.78;100.00
30339;BME280;795;49.296;11.348;2022-08-19T07:37:37;95973.50;;;21.89;100.00
30339;BME280;795;49.296;11.348;2022-08-19T07:40:08;95968.94;;;21.94;100.00
30339;BME280;795;49.296;11.348;2022-08-19T07:42:35;95963.06;;;21.52;100.00
30339;BME280;795;49.296;11.348;2022-08-19T07:45:06;95959.00;;;21.55;100.00
30339;BME280;795;49.296;11.348;2022-08-19T07:47:33;95966.19;;;21.44;100.00
30339;BME280;795;49.296;11.348;2022-08-19T07:50:19;95961.22;;;21.41;100.00
30339;BME280;795;49.296;11.348;2022-08-19T07:52:48;95944.22;;;21.06;100.00
30339;BME280;795;49.296;11.348;2022-08-19T07:55:25;95947.69;;;20.62;100.00
30339;BME280;795;49.296;11.348;2022-08-19T07:58:13;95940.72;;;20.66;100.00
30339;BME280;795;49.296;11.348;2022-08-19T08:03:57;95964.59;;;20.47;100.00
30339;BME280;795;49.296;11.348;2022-08-19T08:06:43;95961.91;;;20.24;100.00
30339;BME280;795;49.296;11.348;2022-08-19T08:09:37;95970.78;;;20.31;100.00
30339;BME280;795;49.296;11.348;2022-08-19T08:12:19;95964.66;;;20.24;100.00
30339;BME280;795;49.296;11.348;2022-08-19T08:15:07;95964.31;;;20.60;100.00
30339;BME280;795;49.296;11.348;2022-08-19T08:17:39;95967.72;;;20.67;100.00
30339;BME280;795;49.296;11.348;2022-08-19T08:20:19;95971.19;;;20.63;100.00
30339;BME280;795;49.296;11.348;2022-08-19T08:22:47;95973.22;;;20.56;100.00
30339;BME280;795;49.296;11.348;2022-08-19T08:25:35;95981.94;;;20.69;100.00
30339;BME280;795;49.296;11.348;2022-08-19T08:28:03;95979.69;;;20.78;100.00
30339;BME280;795;49.296;11.348;2022-08-19T08:30:31;95981.09;;;20.80;100.00
30339;BME280;795;49.296;11.348;2022-08-19T08:33:00;95976.31;;;20.87;100.00
30339;BME280;795;49.296;11.348;2022-08-19T08:35:28;95973.91;;;20.91;100.00
30339;BME280;795;49.296;11.348;2022-08-19T08:37:56;95966.84;;;20.78;100.00
30339;BME280;795;49.296;11.348;2022-08-19T08:40:43;95969.53;;;20.62;100.00
30339;BME280;795;49.296;11.348;2022-08-19T08:43:39;95964.22;;;20.55;100.00
30339;BME280;795;49.296;11.348;2022-08-19T08:46:21;95967.84;;;20.72;100.00
30339;BME280;795;49.296;11.348;2022-08-19T08:52:11;95978.81;;;20.89;100.00
30339;BME280;795;49.296;11.348;2022-08-19T08:54:49;95981.91;;;20.81;100.00
30339;BME280;795;49.296;11.348;2022-08-19T09:00:30;95983.69;;;20.87;100.00
30339;BME280;795;49.296;11.348;2022-08-19T09:03:00;95992.34;;;20.84;100.00
30339;BME280;795;49.296;11.348;2022-08-19T09:05:59;95985.41;;;20.65;100.00
30339;BME280;795;49.296;11.348;2022-08-19T09:09:04;95973.72;;;20.52;100.00
30339;BME280;795;49.296;11.348;2022-08-19T09:14:59;95971.25;;;20.79;100.00
30339;BME280;795;49.296;11.348;2022-08-19T09:17:32;95977.22;;;20.93;100.00
30339;BME280;795;49.296;11.348;2022-08-19T09:20:24;95979.72;;;21.06;100.00
30339;BME280;795;49.296;11.348;2022-08-19T09:22:52;95979.09;;;21.49;100.00
30339;BME280;795;49.296;11.348;2022-08-19T09:25:22;95974.72;;;21.48;100.00
30339;BME280;795;49.296;11.348;2022-08-19T09:27:54;95972.47;;;21.61;100.00
30339;BME280;795;49.296;11.348;2022-08-19T09:30:39;95967.75;;;21.40;100.00
30339;BME280;795;49.296;11.348;2022-08-19T09:33:08;95963.81;;;21.64;100.00
30339;BME280;795;49.296;11.348;2022-08-19T09:35:35;95970.75;;;21.55;100.00
30339;BME280;795;49.296;11.348;2022-08-19T09:38:21;95968.16;;;21.65;100.00
30339;BME280;795;49.296;11.348;2022-08-19T09:40:48;95975.97;;;21.73;100.00
30339;BME280;795;49.296;11.348;2022-08-19T09:43:17;95982.91;;;21.64;100.00
30339;BME280;795;49.296;11.348;2022-08-19T09:46:01;95993.41;;;21.39;100.00
30339;BME280;795;49.296;11.348;2022-08-19T09:48:28;95989.88;;;21.39;100.00
30339;BME280;795;49.296;11.348;2022-08-19T09:51:04;95984.81;;;21.31;100.00
30339;BME280;795;49.296;11.348;2022-08-19T09:53:32;95977.16;;;21.16;100.00
30339;BME280;795;49.296;11.348;2022-08-19T09:56:01;95972.44;;;21.11;100.00
30339;BME280;795;49.296;11.348;2022-08-19T09:58:31;95977.19;;;21.04;100.00
30339;BME280;795;49.296;11.348;2022-08-19T10:01:01;95983.09;;;20.85;100.00
30339;BME280;795;49.296;11.348;2022-08-19T10:03:32;95989.22;;;20.64;100.00
30339;BME280;795;49.296;11.348;2022-08-19T10:06:05;95977.84;;;20.55;100.00
30339;BME280;795;49.296;11.348;2022-08-19T10:08:44;95983.84;;;20.29;100.00
30339;BME280;795;49.296;11.348;2022-08-19T10:11:18;95982.06;;;20.23;100.00
30339;BME280;795;49.296;11.348;2022-08-19T10:14:04;95992.22;;;20.16;100.00
30339;BME280;795;49.296;11.348;2022-08-19T10:16:33;95990.22;;;20.11;100.00
30339;BME280;795;49.296;11.348;2022-08-19T10:19:05;95996.63;;;20.17;100.00
30339;BME280;795;49.296;11.348;2022-08-19T10:21:34;96000.28;;;20.45;100.00
30339;BME280;795;49.296;11.348;2022-08-19T10:24:04;96006.28;;;20.59;100.00
30339;BME280;795;49.296;11.348;2022-08-19T10:26:40;96002.50;;;20.60;100.00
30339;BME280;795;49.296;11.348;2022-08-19T10:29:12;96012.34;;;20.49;100.00
30339;BME280;795;49.296;11.348;2022-08-19T10:32:08;96010.13;;;20.35;100.00
30339;BME280;795;49.296;11.348;2022-08-19T10:34:39;96009.16;;;20.18;100.00
30339;BME280;795;49.296;11.348;2022-08-19T10:37:17;96021.63;;;20.14;100.00
30339;BME280;795;49.296;11.348;2022-08-19T10:39:58;96025.41;;;20.01;100.00
30339;BME280;795;49.296;11.348;2022-08-19T10:42:25;96022.09;;;19.99;100.00
30339;BME280;795;49.296;11.348;2022-08-19T10:44:52;96015.94;;;19.92;100.00
30339;BME280;795;49.296;11.348;2022-08-19T10:47:19;96011.78;;;19.78;100.00
30339;BME280;795;49.296;11.348;2022-08-19T10:49:54;96012.25;;;19.63;100.00
30339;BME280;795;49.296;11.348;2022-08-19T10:52:44;96010.22;;;19.47;100.00
30339;BME280;795;49.296;11.348;2022-08-19T10:55:22;96030.59;;;19.56;100.00
30339;BME280;795;49.296;11.348;2022-08-19T10:58:20;96029.50;;;19.57;100.00
30339;BME280;795;49.296;11.348;2022-08-19T11:00:57;96021.59;;;19.67;100.00
30339;BME280;795;49.296;11.348;2022-08-19T11:03:26;96008.69;;;19.51;100.00
30339;BME280;795;49.296;11.348;2022-08-19T11:06:08;96006.09;;;19.56;100.00
30339;BME280;795;49.296;11.348;2022-08-19T11:08:38;96003.72;;;19.60;100.00
30339;BME280;795;49.296;11.348;2022-08-19T11:11:07;96005.00;;;19.57;100.00
30339;BME280;795;49.296;11.348;2022-08-19T11:13:41;96010.25;;;19.82;100.00
30339;BME280;795;49.296;11.348;2022-08-19T11:16:17;96004.47;;;19.90;100.00
30339;BME280;795;49.296;11.348;2022-08-19T11:18:54;96005.63;;;20.06;100.00
30339;BME280;795;49.296;11.348;2022-08-19T11:21:39;96001.84;;;20.30;100.00
30339;BME280;795;49.296;11.348;2022-08-19T11:24:14;96002.75;;;20.47;100.00
30339;BME280;795;49.296;11.348;2022-08-19T11:26:44;95996.97;;;20.83;100.00
30339;BME280;795;49.296;11.348;2022-08-19T11:29:13;96002.50;;;21.00;100.00
30339;BME280;795;49.296;11.348;2022-08-19T11:31:46;95988.00;;;21.11;100.00
30339;BME280;795;49.296;11.348;2022-08-19T11:34:20;95992.44;;;21.17;100.00
30339;BME280;795;49.296;11.348;2022-08-19T11:36:51;95994.69;;;20.92;100.00
30339;BME280;795;49.296;11.348;2022-08-19T11:39:21;95986.94;;;21.12;100.00
30339;BME280;795;49.296;11.348;2022-08-19T11:41:49;95995.13;;;21.12;100.00
30339;BME280;795;49.296;11.348;2022-08-19T11:44:16;95985.88;;;21.46;100.00
30339;BME280;795;49.296;11.348;2022-08-19T11:46:45;95987.28;;;21.65;100.00
30339;BME280;795;49.296;11.348;2022-08-19T11:49:18;95993.88;;;21.98;100.00
30339;BME280;795;49.296;11.348;2022-08-19T11:51:48;95988.75;;;22.01;100.00
30339;BME280;795;49.296;11.348;2022-08-19T11:54:19;95978.97;;;21.55;100.00
30339;BME280;795;49.296;11.348;2022-08-19T11:56:46;95981.81;;;21.49;100.00
30339;BME280;795;49.296;11.348;2022-08-19T11:59:15;95996.66;;;21.53;100.00
30339;BME280;795;49.296;11.348;2022-08-19T12:01:42;96001.03;;;21.54;100.00
30339;BME280;795;49.296;11.348;2022-08-19T12:04:10;95984.81;;;21.64;100.00
30339;BME280;795;49.296;11.348;2022-08-19T12:06:40;95975.38;;;21.71;100.00
30339;BME280;795;49.296;11.348;2022-08-19T12:09:10;95967.75;;;21.73;100.00
30339;BME280;795;49.296;11.348;2022-08-19T12:11:39;95975.38;;;21.55;100.00
30339;BME280;795;49.296;11.348;2022-08-19T12:14:12;95971.72;;;21.66;100.00
30339;BME280;795;49.296;11.348;2022-08-19T12:16:44;95982.00;;;21.92;100.00
30339;BME280;795;49.296;11.348;2022-08-19T12:19:18;95967.03;;;21.95;100.00
30339;BME280;795;49.296;11.348;2022-08-19T12:21:50;95965.88;;;21.91;100.00
30339;BME280;795;49.296;11.348;2022-08-19T12:24:17;95959.41;;;21.97;100.00
30339;BME280;795;49.296;11.348;2022-08-19T12:26:51;95959.56;;;21.73;100.00
30339;BME280;795;49.296;11.348;2022-08-19T12:29:21;95964.19;;;21.56;100.00
30339;BME280;795;49.296;11.348;2022-08-19T12:31:57;95961.28;;;21.46;100.00
30339;BME280;795;49.296;11.348;2022-08-19T12:34:32;95967.56;;;21.13;100.00
30339;BME280;795;49.296;11.348;2022-08-19T12:37:04;95965.41;;;20.87;100.00
30339;BME280;795;49.296;11.348;2022-08-19T12:39:39;95919.31;;;20.46;100.00
30339;BME280;795;49.296;11.348;2022-08-19T12:42:10;95983.06;;;20.57;100.00
30339;BME280;795;49.296;11.348;2022-08-19T12:44:42;95968.63;;;20.44;100.00
30339;BME280;795;49.296;11.348;2022-08-19T12:47:12;95960.94;;;20.41;100.00
30339;BME280;795;49.296;11.348;2022-08-19T12:49:41;95973.97;;;20.39;100.00
30339;BME280;795;49.296;11.348;2022-08-19T12:52:25;95984.41;;;20.19;100.00
30339;BME280;795;49.296;11.348;2022-08-19T12:54:57;95984.88;;;20.16;100.00
30339;BME280;795;49.296;11.348;2022-08-19T12:57:27;95979.00;;;20.08;100.00
30339;BME280;795;49.296;11.348;2022-08-19T13:00:17;95987.63;;;20.16;100.00
30339;BME280;795;49.296;11.348;2022-08-19T13:02:48;95988.19;;;20.18;100.00
30339;BME280;795;49.296;11.348;2022-08-19T13:05:31;95974.25;;;20.26;100.00
30339;BME280;795;49.296;11.348;2022-08-19T13:08:00;95985.16;;;20.26;100.00
30339;BME280;795;49.296;11.348;2022-08-19T13:10:33;95996.31;;;20.25;100.00
30339;BME280;795;49.296;11.348;2022-08-19T13:13:06;95983.38;;;20.32;100.00
30339;BME280;795;49.296;11.348;2022-08-19T13:15:37;95984.75;;;20.46;100.00
30339;BME280;795;49.296;11.348;2022-08-19T13:18:09;95985.63;;;20.75;100.00
30339;BME280;795;49.296;11.348;2022-08-19T13:20:38;95986.78;;;21.19;100.00
30339;BME280;795;49.296;11.348;2022-08-19T13:23:08;95978.53;;;21.47;100.00
30339;BME280;795;49.296;11.348;2022-08-19T13:25:36;95987.97;;;21.72;100.00
30339;BME280;795;49.296;11.348;2022-08-19T13:28:03;95990.38;;;21.52;100.00
30339;BME280;795;49.296;11.348;2022-08-19T13:30:33;95988.13;;;21.33;100.00
30339;BME280;795;49.296;11.348;2022-08-19T13:33:18;95985.22;;;21.39;100.00
30339;BME280;795;49.296;11.348;2022-08-19T13:35:58;95988.75;;;21.23;100.00
30339;BME280;795;49.296;11.348;2022-08-19T13:38:28;95981.47;;;21.12;100.00
30339;BME280;795;49.296;11.348;2022-08-19T13:40:55;95972.66;;;21.10;100.00